createdAt,value
2023-06-17T00:05:39.414Z,2.09
2023-06-17T00:16:41.112Z,2.35
2023-06-17T00:20:23.149Z,4.09
2023-06-17T00:24:04.431Z,2.77
2023-06-17T00:35:06.012Z,2.48
2023-06-17T00:38:47.630Z,2.48
2023-06-17T00:42:29.253Z,3.15
2023-06-17T00:46:10.851Z,2.35
2023-06-17T00:57:12.579Z,0.00
2023-06-17T01:04:34.224Z,2.09
2023-06-17T01:11:56.868Z,2.87
2023-06-17T01:15:38.509Z,3.53
2023-06-17T01:26:40.284Z,5.03
2023-06-17T01:30:22.341Z,3.73
2023-06-17T01:41:23.675Z,3.26
2023-06-17T01:52:25.457Z,3.48
2023-06-17T01:56:07.071Z,4.71
2023-06-17T02:07:08.832Z,3.18
2023-06-17T02:10:50.515Z,4.91
2023-06-17T02:14:32.101Z,3.54
2023-06-17T02:25:34.006Z,2.09
2023-06-17T02:32:55.693Z,1.90
2023-06-17T02:43:57.435Z,2.96
2023-06-17T02:51:19.167Z,2.09
2023-06-17T02:55:00.718Z,2.22
2023-06-17T02:58:42.304Z,2.29
2023-06-17T03:02:23.950Z,2.87
2023-06-17T03:13:25.613Z,0.00
2023-06-17T03:24:37.400Z,0.00
2023-06-17T03:35:39.062Z,0.00
2023-06-17T03:46:40.784Z,0.00
2023-06-17T03:50:22.583Z,2.09
2023-06-17T03:54:05.073Z,4.15
2023-06-17T03:57:46.605Z,2.82
2023-06-17T04:01:31.257Z,4.34
2023-06-17T04:05:12.868Z,2.97
2023-06-17T04:08:54.481Z,3.45
2023-06-17T04:12:36.181Z,3.62
2023-06-17T04:16:17.737Z,2.35
2023-06-17T04:27:19.462Z,4.30
2023-06-17T04:31:01.056Z,2.22
2023-06-17T04:34:42.608Z,3.51
2023-06-17T04:38:24.179Z,3.25
2023-06-17T04:42:05.785Z,2.09
2023-06-17T04:49:28.497Z,2.48
2023-06-17T04:53:10.049Z,2.22
2023-06-17T04:56:51.635Z,3.02
2023-06-17T05:00:33.206Z,2.48
2023-06-17T05:04:14.756Z,3.06
2023-06-17T05:07:56.436Z,4.13
2023-06-17T05:11:37.954Z,2.09
2023-06-17T05:15:19.512Z,2.61
2023-06-17T05:19:01.130Z,5.29
2023-06-17T05:22:42.734Z,2.29
2023-06-17T05:30:04.399Z,1.90
2023-06-17T05:41:06.147Z,3.16
2023-06-17T05:44:47.727Z,3.67
2023-06-17T05:48:29.354Z,2.69
2023-06-17T05:55:50.967Z,2.48
2023-06-17T06:06:52.794Z,2.76
2023-06-17T06:10:34.361Z,2.22
2023-06-17T06:14:19.055Z,2.09
2023-06-17T06:25:17.740Z,3.77
2023-06-17T06:28:59.283Z,2.87
2023-06-17T06:40:00.996Z,0.00
2023-06-17T06:43:42.588Z,1.70
2023-06-17T06:54:44.285Z,0.00
2023-06-17T07:02:06.015Z,2.09
2023-06-17T07:13:07.685Z,1.70
2023-06-17T07:24:09.499Z,0.00
2023-06-17T07:27:51.162Z,3.68
2023-06-17T07:38:52.964Z,2.94
2023-06-17T07:42:34.627Z,3.27
2023-06-17T07:46:16.338Z,4.14
2023-06-17T07:49:57.871Z,4.69
2023-06-17T07:53:39.544Z,4.97
2023-06-17T08:01:01.242Z,2.76
2023-06-17T08:08:22.913Z,2.19
2023-06-17T08:15:44.551Z,3.03
2023-06-17T08:26:46.343Z,4.32
2023-06-17T08:30:27.917Z,4.82
2023-06-17T08:41:29.659Z,0.00
2023-06-17T08:52:31.397Z,0.00
2023-06-17T09:03:33.109Z,0.00
2023-06-17T09:14:34.951Z,3.57
2023-06-17T09:18:16.600Z,3.92
2023-06-17T09:21:58.218Z,4.06
2023-06-17T09:25:39.783Z,2.29
2023-06-17T09:33:01.552Z,2.56
2023-06-17T09:40:23.332Z,3.94
2023-06-17T09:44:04.889Z,4.85
2023-06-17T09:47:46.746Z,5.63
2023-06-17T09:51:28.447Z,5.01
2023-06-17T09:55:10.150Z,2.80
2023-06-17T09:58:51.910Z,6.22
2023-06-17T10:02:33.678Z,4.88
2023-06-17T10:06:15.324Z,5.48
2023-06-17T10:09:56.936Z,4.28
2023-06-17T10:17:18.627Z,3.35
2023-06-17T10:21:01.472Z,4.73
2023-06-17T10:24:43.332Z,5.28
2023-06-17T10:28:24.983Z,3.87
2023-06-17T10:32:15.783Z,5.67
2023-06-17T10:35:57.562Z,6.92
2023-06-17T10:39:39.288Z,4.66
2023-06-17T10:43:21.017Z,4.45
2023-06-17T10:47:02.596Z,2.09
2023-06-17T10:50:44.196Z,2.40
2023-06-17T10:54:25.948Z,4.12
2023-06-17T10:58:07.736Z,4.33
2023-06-17T11:01:49.772Z,3.51
2023-06-17T11:05:31.137Z,3.87
2023-06-17T11:09:12.853Z,4.32
2023-06-17T11:12:54.627Z,5.20
2023-06-17T11:16:36.474Z,4.56
2023-06-17T11:20:18.288Z,5.72
2023-06-17T11:24:00.189Z,6.06
2023-06-17T11:27:42.536Z,6.00
2023-06-17T11:31:25.899Z,4.50
2023-06-17T11:35:07.454Z,4.17
2023-06-17T11:38:49.245Z,5.66
2023-06-17T11:42:31.081Z,5.42
2023-06-17T11:46:12.682Z,3.45
2023-06-17T11:49:54.337Z,3.22
2023-06-17T11:53:36.234Z,7.06
2023-06-17T11:57:17.968Z,3.86
2023-06-17T12:00:59.717Z,5.76
2023-06-17T12:04:41.449Z,2.85
2023-06-17T12:08:23.200Z,4.82
2023-06-17T12:12:05.045Z,4.18
2023-06-17T12:15:46.749Z,3.66
2023-06-17T12:19:28.459Z,4.13
2023-06-17T12:23:10.197Z,4.92
2023-06-17T12:26:52.153Z,5.50
2023-06-17T12:30:33.988Z,4.96
2023-06-17T12:34:15.794Z,3.18
2023-06-17T12:37:57.478Z,3.39
2023-06-17T12:41:39.245Z,6.20
2023-06-17T12:45:21.269Z,4.27
2023-06-17T12:49:02.606Z,4.62
2023-06-17T12:52:44.394Z,4.90
2023-06-17T12:56:26.323Z,5.18
2023-06-17T13:00:08.178Z,5.37
2023-06-17T13:03:49.947Z,3.95
2023-06-17T13:07:31.544Z,2.61
2023-06-17T13:11:13.303Z,6.12
2023-06-17T13:14:55.089Z,5.74
2023-06-17T13:18:36.673Z,1.90
2023-06-17T13:22:18.420Z,6.04
2023-06-17T13:26:01.133Z,3.83
2023-06-17T13:29:41.877Z,5.02
2023-06-17T13:33:23.708Z,4.81
2023-06-17T13:40:45.439Z,4.51
2023-06-17T13:44:27.197Z,4.94
2023-06-17T13:48:09.045Z,5.99
2023-06-17T13:51:50.713Z,5.01
2023-06-17T13:55:32.338Z,2.86
2023-06-17T13:59:14.127Z,8.52
2023-06-17T14:02:56.059Z,5.34
2023-06-17T14:06:37.543Z,2.61
2023-06-17T14:10:19.334Z,3.64
2023-06-17T14:14:01.015Z,4.87
2023-06-17T14:17:42.825Z,6.44
2023-06-17T14:21:24.476Z,4.46
2023-06-17T14:25:06.232Z,4.24
2023-06-17T14:28:47.979Z,5.34
2023-06-17T14:32:29.800Z,5.83
2023-06-17T14:36:11.585Z,6.03
2023-06-17T14:39:53.284Z,3.30
2023-06-17T14:43:35.429Z,3.74
2023-06-17T14:47:19.662Z,4.59
2023-06-17T14:50:58.890Z,3.84
2023-06-17T14:54:40.666Z,4.40
2023-06-17T14:58:22.516Z,4.84
2023-06-17T15:02:04.277Z,5.55
2023-06-17T15:05:46.000Z,3.39
2023-06-17T15:09:27.685Z,4.53
2023-06-17T15:13:09.450Z,4.60
2023-06-17T15:16:51.275Z,4.60
2023-06-17T15:20:32.882Z,5.19
2023-06-17T15:24:14.675Z,4.41
2023-06-17T15:27:56.192Z,2.87
2023-06-17T15:31:37.843Z,3.12
2023-06-17T15:35:19.533Z,3.53
2023-06-17T15:39:01.275Z,4.09
2023-06-17T15:42:45.133Z,4.09
2023-06-17T15:46:24.667Z,2.98
2023-06-17T15:50:06.350Z,4.96
2023-06-17T15:53:50.721Z,3.63
2023-06-17T15:57:30.712Z,3.30
2023-06-17T16:01:12.397Z,2.58
2023-06-17T16:04:53.952Z,3.11
2023-06-17T16:08:35.630Z,3.36
2023-06-17T16:12:17.364Z,4.14
2023-06-17T16:15:59.183Z,5.23
2023-06-17T16:19:40.834Z,3.19
2023-06-17T16:23:22.424Z,4.07
2023-06-17T16:27:04.032Z,2.41
2023-06-17T16:30:45.732Z,3.71
2023-06-17T16:34:27.487Z,4.01
2023-06-17T16:38:09.221Z,4.21
2023-06-17T16:41:50.775Z,3.19
2023-06-17T16:45:32.484Z,2.61
2023-06-17T16:49:14.064Z,2.46
2023-06-17T16:52:55.748Z,3.65
2023-06-17T16:56:37.375Z,3.17
2023-06-17T17:00:19.100Z,2.62
2023-06-17T17:04:00.573Z,3.35
2023-06-17T17:15:02.348Z,2.48
2023-06-17T17:18:43.958Z,3.07
2023-06-17T17:22:25.547Z,2.36
2023-06-17T17:33:27.308Z,0.00
2023-06-17T17:40:48.962Z,4.44
2023-06-17T17:44:30.565Z,2.80
2023-06-17T17:55:32.308Z,0.00
2023-06-17T18:06:34.015Z,0.00
2023-06-17T18:17:35.778Z,0.00
2023-06-17T18:28:37.473Z,0.00
2023-06-17T18:35:59.140Z,2.09
2023-06-17T18:39:40.749Z,2.65
2023-06-17T18:43:22.308Z,4.57
2023-06-17T18:47:04.010Z,2.64
2023-06-17T18:50:45.520Z,2.86
2023-06-17T18:54:27.104Z,2.09
2023-06-17T19:05:28.846Z,0.00
2023-06-17T19:16:30.631Z,0.00
2023-06-17T19:27:34.312Z,0.00
2023-06-17T19:38:36.075Z,0.00
2023-06-17T19:49:37.821Z,0.00
2023-06-17T20:00:39.613Z,0.00
2023-06-17T20:11:41.327Z,0.00
2023-06-17T20:22:43.081Z,0.00
2023-06-17T20:33:44.803Z,0.00
2023-06-17T20:44:46.602Z,2.40
2023-06-17T20:55:48.395Z,0.00
2023-06-17T20:59:29.981Z,2.70
2023-06-17T21:06:51.681Z,2.09
2023-06-17T21:17:53.514Z,3.52
2023-06-17T21:21:35.051Z,2.93
2023-06-17T21:32:36.848Z,2.09
2023-06-17T21:36:18.384Z,2.09
2023-06-17T21:39:59.921Z,2.48
2023-06-17T21:47:21.645Z,2.48
2023-06-17T21:51:03.291Z,2.28
2023-06-17T21:54:44.838Z,2.62
2023-06-17T21:58:26.408Z,2.48
2023-06-17T22:02:08.031Z,3.02
2023-06-17T22:05:49.673Z,3.01
2023-06-17T22:09:31.264Z,2.09
2023-06-17T22:20:32.977Z,1.70
2023-06-17T22:31:34.749Z,2.09
2023-06-17T22:42:36.460Z,0.00
2023-06-17T22:53:38.237Z,0.00
2023-06-17T23:04:39.932Z,0.00
2023-06-17T23:08:21.509Z,2.22
2023-06-17T23:15:43.180Z,2.29
2023-06-17T23:26:44.908Z,2.99
2023-06-17T23:34:06.586Z,2.09
2023-06-17T23:37:48.217Z,1.96
2023-06-17T23:41:29.805Z,2.64
2023-06-17T23:52:31.554Z,0.00
